createdAt,value
2018-08-28T00:00:54.414Z,66.28
2018-08-28T00:01:54.435Z,66.76
2018-08-28T00:02:54.452Z,66.76
2018-08-28T00:03:54.470Z,66.19
2018-08-28T00:04:54.489Z,66.76
2018-08-28T00:05:54.509Z,67.62
2018-08-28T00:06:54.525Z,67.05
2018-08-28T00:07:54.545Z,66.85
2018-08-28T00:08:54.566Z,66.76
2018-08-28T00:09:54.583Z,66.85
2018-08-28T00:10:54.600Z,66.76
2018-08-28T00:11:54.619Z,67.24
2018-08-28T00:12:54.636Z,67.81
2018-08-28T00:13:54.657Z,67.81
2018-08-28T00:14:54.675Z,67.24
2018-08-28T00:15:54.691Z,67.05
2018-08-28T00:16:54.736Z,67.62
2018-08-28T00:17:54.734Z,67.62
2018-08-28T00:18:54.750Z,67.91
2018-08-28T00:19:54.768Z,67.81
2018-08-28T00:20:54.789Z,68.10
2018-08-28T00:21:54.805Z,67.62
2018-08-28T00:22:54.821Z,67.81
2018-08-28T00:23:54.845Z,67.71
2018-08-28T00:24:54.860Z,67.71
2018-08-28T00:25:54.881Z,68.10
2018-08-28T00:26:54.899Z,67.91
2018-08-28T00:27:54.917Z,67.52
2018-08-28T00:28:54.932Z,67.81
2018-08-28T00:29:54.964Z,67.81
2018-08-28T00:30:54.970Z,67.71
2018-08-28T00:31:54.989Z,68.19
2018-08-28T00:32:55.007Z,68.57
2018-08-28T00:33:55.027Z,68.29
2018-08-28T00:34:55.045Z,68.57
2018-08-28T00:35:55.060Z,68.57
2018-08-28T00:36:55.079Z,68.29
2018-08-28T00:37:55.103Z,68.00
2018-08-28T00:38:55.119Z,68.00
2018-08-28T00:39:55.137Z,68.76
2018-08-28T00:40:55.154Z,68.57
2018-08-28T00:41:55.172Z,68.19
2018-08-28T00:42:55.188Z,68.19
2018-08-28T00:43:55.208Z,67.62
2018-08-28T00:44:55.228Z,68.10
2018-08-28T00:45:55.244Z,68.19
2018-08-28T00:46:55.263Z,68.29
2018-08-28T00:47:55.281Z,68.19
2018-08-28T00:48:55.301Z,68.57
2018-08-28T00:49:55.323Z,69.21
2018-08-28T00:50:55.337Z,68.29
2018-08-28T00:51:55.356Z,69.15
2018-08-28T00:52:55.374Z,70.07
2018-08-28T00:53:55.393Z,70.10
2018-08-28T00:54:55.411Z,69.53
2018-08-28T00:55:55.427Z,69.97
2018-08-28T00:56:55.444Z,70.29
2018-08-28T00:57:55.465Z,70.48
2018-08-28T00:58:55.482Z,70.16
2018-08-28T00:59:55.500Z,70.07
2018-08-28T01:00:55.518Z,69.97
2018-08-28T01:01:55.538Z,69.68
2018-08-28T01:02:55.555Z,70.16
2018-08-28T01:03:55.574Z,69.78
2018-08-28T01:04:55.595Z,70.01
2018-08-28T01:05:55.611Z,69.87
2018-08-28T01:06:55.629Z,69.40
2018-08-28T01:07:55.645Z,69.43
2018-08-28T01:08:55.664Z,70.16
2018-08-28T01:09:55.682Z,70.07
2018-08-28T01:10:55.701Z,69.97
2018-08-28T01:11:55.719Z,70.01
2018-08-28T01:12:55.738Z,70.07
2018-08-28T01:13:55.757Z,69.87
2018-08-28T01:14:55.775Z,69.78
2018-08-28T01:15:55.790Z,69.43
2018-08-28T01:16:55.810Z,69.21
2018-08-28T01:17:55.828Z,68.82
2018-08-28T01:18:55.846Z,69.31
2018-08-28T01:19:55.866Z,69.31
2018-08-28T01:20:55.884Z,69.11
2018-08-28T01:21:55.901Z,68.92
2018-08-28T01:22:55.919Z,68.82
2018-08-28T01:23:55.936Z,69.11
2018-08-28T01:24:55.956Z,68.82
2018-08-28T01:25:55.975Z,69.40
2018-08-28T01:26:55.989Z,69.40
2018-08-28T01:27:56.009Z,69.31
2018-08-28T01:28:56.031Z,69.21
2018-08-28T01:29:56.046Z,69.49
2018-08-28T01:30:56.067Z,70.16
2018-08-28T01:31:56.083Z,69.97
2018-08-28T01:32:56.101Z,69.97
2018-08-28T01:33:56.120Z,70.36
2018-08-28T01:34:56.137Z,70.26
2018-08-28T01:35:56.156Z,70.92
2018-08-28T01:36:56.171Z,70.36
2018-08-28T01:37:56.190Z,70.36
2018-08-28T01:38:56.210Z,70.36
2018-08-28T01:39:56.225Z,69.87
2018-08-28T01:40:56.245Z,69.97
2018-08-28T01:41:56.262Z,70.07
2018-08-28T01:42:56.279Z,69.87
2018-08-28T01:43:56.299Z,69.49
2018-08-28T01:44:56.316Z,69.21
2018-08-28T01:45:56.334Z,69.31
2018-08-28T01:46:56.353Z,69.49
2018-08-28T01:47:56.373Z,69.68
2018-08-28T01:48:56.388Z,69.78
2018-08-28T01:49:56.405Z,69.87
2018-08-28T01:50:56.425Z,69.59
2018-08-28T01:51:56.443Z,70.07
2018-08-28T01:52:56.460Z,69.97
2018-08-28T01:53:56.476Z,70.26
2018-08-28T01:54:56.494Z,70.26
2018-08-28T01:55:56.514Z,70.73
2018-08-28T01:56:56.532Z,71.59
2018-08-28T01:57:56.553Z,71.31
2018-08-28T01:58:56.623Z,71.50
2018-08-28T01:59:56.584Z,71.12
2018-08-28T02:00:56.602Z,71.12
2018-08-28T02:01:56.621Z,71.41
2018-08-28T02:02:56.640Z,71.84
2018-08-28T02:03:56.656Z,72.07
2018-08-28T02:04:56.673Z,72.23
2018-08-28T02:05:56.696Z,72.23
2018-08-28T02:06:56.710Z,72.13
2018-08-28T02:07:56.728Z,72.17
2018-08-28T02:08:56.746Z,72.26
2018-08-28T02:09:56.763Z,72.26
2018-08-28T02:10:56.781Z,72.23
2018-08-28T02:11:56.799Z,72.55
2018-08-28T02:12:56.816Z,72.07
2018-08-28T02:13:56.834Z,72.03
2018-08-28T02:14:56.853Z,72.13
2018-08-28T02:15:56.871Z,71.94
2018-08-28T02:16:56.889Z,71.41
2018-08-28T02:17:56.908Z,71.50
2018-08-28T02:18:56.925Z,71.37
2018-08-28T02:19:56.942Z,71.69
2018-08-28T02:20:56.960Z,72.03
2018-08-28T02:21:56.978Z,72.03
2018-08-28T02:22:56.997Z,72.03
2018-08-28T02:23:57.013Z,71.94
2018-08-28T02:24:57.031Z,71.94
2018-08-28T02:25:57.052Z,71.56
2018-08-28T02:26:57.067Z,71.56
2018-08-28T02:27:57.085Z,71.46
2018-08-28T02:28:57.104Z,71.56
2018-08-28T02:29:57.122Z,71.84
2018-08-28T02:30:57.140Z,72.03
2018-08-28T02:31:57.156Z,72.03
2018-08-28T02:32:57.175Z,72.03
2018-08-28T02:33:57.191Z,71.75
2018-08-28T02:34:57.209Z,71.56
2018-08-28T02:35:57.226Z,71.08
2018-08-28T02:36:57.244Z,71.18
2018-08-28T02:37:57.263Z,71.56
2018-08-28T02:38:57.279Z,72.03
2018-08-28T02:39:57.299Z,71.56
2018-08-28T02:40:57.320Z,71.18
2018-08-28T02:41:57.332Z,70.70
2018-08-28T02:42:57.348Z,71.08
2018-08-28T02:43:57.371Z,70.98
2018-08-28T02:44:57.387Z,71.75
2018-08-28T02:45:57.406Z,71.94
2018-08-28T02:46:57.424Z,72.51
2018-08-28T02:47:57.441Z,73.18
2018-08-28T02:48:57.459Z,73.56
2018-08-28T02:49:57.475Z,74.13
2018-08-28T02:50:57.492Z,73.94
2018-08-28T02:51:57.510Z,73.66
2018-08-28T02:52:57.527Z,73.08
2018-08-28T02:53:57.544Z,72.32
2018-08-28T02:54:57.569Z,72.13
2018-08-28T02:55:57.580Z,72.13
2018-08-28T02:56:57.598Z,71.94
2018-08-28T02:57:57.616Z,71.66
2018-08-28T02:58:57.634Z,71.56
2018-08-28T02:59:57.650Z,71.37
2018-08-28T03:00:57.669Z,73.66
2018-08-28T03:01:57.688Z,73.94
2018-08-28T03:02:57.717Z,73.18
2018-08-28T03:03:57.721Z,72.23
2018-08-28T03:04:57.738Z,73.18
2018-08-28T03:05:57.757Z,73.56
2018-08-28T03:06:57.773Z,73.28
2018-08-28T03:07:57.802Z,73.08
2018-08-28T03:08:57.813Z,72.61
2018-08-28T03:09:57.829Z,72.80
2018-08-28T03:10:57.844Z,72.89
2018-08-28T03:11:57.861Z,73.28
2018-08-28T03:12:57.880Z,73.47
2018-08-28T03:13:57.899Z,73.37
2018-08-28T03:14:57.915Z,73.28
2018-08-28T03:15:57.943Z,72.61
2018-08-28T03:16:57.953Z,72.61
2018-08-28T03:17:57.970Z,72.61
2018-08-28T03:18:57.985Z,72.51
2018-08-28T03:19:58.003Z,72.13
2018-08-28T03:20:58.022Z,72.23
2018-08-28T03:21:58.039Z,72.03
2018-08-28T03:22:58.059Z,72.89
2018-08-28T03:23:58.073Z,73.37
2018-08-28T03:24:58.088Z,72.80
2018-08-28T03:25:58.112Z,73.37
2018-08-28T03:26:58.127Z,73.24
2018-08-28T03:27:58.144Z,72.67
2018-08-28T03:28:58.243Z,72.89
2018-08-28T03:29:58.178Z,72.67
2018-08-28T03:30:58.196Z,73.24
2018-08-28T03:31:58.214Z,73.05
2018-08-28T03:32:58.232Z,73.05
2018-08-28T03:33:58.251Z,72.57
2018-08-28T03:34:58.267Z,73.14
2018-08-28T03:35:58.283Z,73.05
2018-08-28T03:36:58.303Z,73.24
2018-08-28T03:37:58.320Z,74.01
2018-08-28T03:38:58.337Z,73.91
2018-08-28T03:39:58.353Z,73.43
2018-08-28T03:40:58.374Z,73.62
2018-08-28T03:41:58.395Z,74.67
2018-08-28T03:42:58.407Z,74.01
2018-08-28T03:43:58.425Z,74.57
2018-08-28T03:44:58.442Z,74.86
2018-08-28T03:45:58.461Z,75.05
2018-08-28T03:46:58.477Z,75.72
2018-08-28T03:47:58.496Z,76.01
2018-08-28T03:48:58.512Z,75.81
2018-08-28T03:49:58.531Z,75.62
2018-08-28T03:50:58.546Z,75.72
2018-08-28T03:51:58.570Z,75.81
2018-08-28T03:52:58.583Z,76.67
2018-08-28T03:53:58.654Z,77.06
2018-08-28T03:54:58.616Z,76.29
2018-08-28T03:55:58.634Z,76.10
2018-08-28T03:56:58.651Z,75.91
2018-08-28T03:57:58.669Z,75.53
2018-08-28T03:58:58.684Z,75.72
2018-08-28T03:59:58.702Z,75.34
2018-08-28T04:00:58.721Z,75.72
2018-08-28T04:01:58.737Z,75.34
2018-08-28T04:02:58.755Z,75.05
2018-08-28T04:03:58.773Z,74.77
2018-08-28T04:04:58.789Z,74.77
2018-08-28T04:05:58.813Z,74.67
2018-08-28T04:06:58.825Z,74.77
2018-08-28T04:07:58.847Z,74.77
2018-08-28T04:08:58.858Z,74.48
2018-08-28T04:09:58.875Z,74.67
2018-08-28T04:10:58.891Z,74.67
2018-08-28T04:11:58.910Z,74.38
2018-08-28T04:12:58.925Z,74.38
2018-08-28T04:13:58.943Z,74.57
2018-08-28T04:14:58.961Z,74.29
2018-08-28T04:15:58.981Z,74.77
2018-08-28T04:16:59.010Z,74.01
2018-08-28T04:17:59.015Z,74.29
2018-08-28T04:18:59.030Z,73.81
2018-08-28T04:19:59.048Z,73.72
2018-08-28T04:20:59.065Z,73.52
2018-08-28T04:21:59.092Z,73.81
2018-08-28T04:22:59.105Z,73.33
2018-08-28T04:23:59.118Z,73.81
2018-08-28T04:24:59.138Z,73.62
2018-08-28T04:25:59.150Z,73.62
2018-08-28T04:26:59.169Z,73.52
2018-08-28T04:27:59.183Z,73.81
2018-08-28T04:28:59.202Z,73.72
2018-08-28T04:29:59.230Z,74.01
2018-08-28T04:30:59.344Z,73.43
2018-08-28T04:31:59.254Z,74.01
2018-08-28T04:32:59.273Z,73.62
2018-08-28T04:33:59.291Z,73.43
2018-08-28T04:34:59.305Z,73.43
2018-08-28T04:35:59.323Z,74.10
2018-08-28T04:36:59.340Z,74.48
2018-08-28T04:37:59.361Z,74.57
2018-08-28T04:38:59.373Z,74.01
2018-08-28T04:39:59.391Z,74.19
2018-08-28T04:40:59.409Z,74.57
2018-08-28T04:41:59.491Z,75.15
2018-08-28T04:42:59.443Z,74.77
2018-08-28T04:43:59.460Z,75.24
2018-08-28T04:44:59.479Z,74.96
2018-08-28T04:45:59.498Z,75.05
2018-08-28T04:46:59.515Z,75.15
2018-08-28T04:47:59.533Z,74.48
2018-08-28T04:48:59.611Z,74.96
2018-08-28T04:49:59.564Z,74.48
2018-08-28T04:50:59.582Z,74.96
2018-08-28T04:51:59.598Z,74.57
2018-08-28T04:52:59.617Z,74.77
2018-08-28T04:53:59.637Z,75.15
2018-08-28T04:54:59.698Z,75.05
2018-08-28T04:55:59.667Z,75.05
2018-08-28T04:56:59.683Z,75.05
2018-08-28T04:57:59.701Z,75.05
2018-08-28T04:58:59.717Z,74.77
2018-08-28T04:59:59.737Z,75.05
2018-08-28T05:00:59.753Z,75.91
2018-08-28T05:01:59.767Z,75.81
2018-08-28T05:02:59.785Z,75.34
2018-08-28T05:03:59.803Z,75.15
2018-08-28T05:04:59.820Z,75.34
2018-08-28T05:05:59.838Z,75.05
2018-08-28T05:06:59.853Z,74.77
2018-08-28T05:07:59.871Z,75.24
2018-08-28T05:08:59.890Z,75.62
2018-08-28T05:09:59.909Z,75.81
2018-08-28T05:10:59.924Z,75.43
2018-08-28T05:11:59.940Z,75.43
2018-08-28T05:12:59.957Z,74.86
2018-08-28T05:13:59.974Z,74.96
2018-08-28T05:14:59.991Z,75.43
2018-08-28T05:16:00.067Z,75.53
2018-08-28T05:17:00.026Z,75.24
2018-08-28T05:18:00.043Z,75.62
2018-08-28T05:19:00.059Z,75.62
2018-08-28T05:20:00.078Z,75.81
2018-08-28T05:21:00.094Z,75.34
2018-08-28T05:22:00.115Z,75.53
2018-08-28T05:23:00.126Z,75.91
2018-08-28T05:24:00.145Z,75.91
2018-08-28T05:25:00.168Z,75.81
2018-08-28T05:26:00.184Z,76.20
2018-08-28T05:27:00.196Z,76.57
2018-08-28T05:28:00.211Z,76.57
2018-08-28T05:29:00.230Z,76.48
2018-08-28T05:30:00.249Z,76.57
2018-08-28T05:31:00.265Z,76.39
2018-08-28T05:32:00.283Z,76.67
2018-08-28T05:33:00.299Z,76.67
2018-08-28T05:34:00.314Z,76.20
2018-08-28T05:35:00.333Z,76.86
2018-08-28T05:36:00.348Z,76.67
2018-08-28T05:37:00.366Z,75.72
2018-08-28T05:38:00.421Z,75.91
2018-08-28T05:39:00.402Z,76.20
2018-08-28T05:40:00.417Z,76.67
2018-08-28T05:41:00.434Z,76.48
2018-08-28T05:42:00.461Z,77.15
2018-08-28T05:43:00.474Z,76.48
2018-08-28T05:44:00.489Z,76.01
2018-08-28T05:45:00.503Z,76.10
2018-08-28T05:46:00.522Z,76.29
2018-08-28T05:47:00.537Z,76.01
2018-08-28T05:48:00.554Z,75.91
2018-08-28T05:49:00.573Z,75.81
2018-08-28T05:50:00.588Z,76.01
2018-08-28T05:51:00.607Z,76.10
2018-08-28T05:52:00.626Z,75.85
2018-08-28T05:53:00.695Z,76.20
2018-08-28T05:54:00.657Z,76.57
2018-08-28T05:55:00.673Z,76.39
2018-08-28T05:56:00.717Z,76.96
2018-08-28T05:57:00.708Z,76.77
2018-08-28T05:58:00.725Z,77.15
2018-08-28T05:59:00.741Z,76.67
2018-08-28T06:00:00.759Z,76.90
2018-08-28T06:01:00.777Z,76.96
2018-08-28T06:02:00.799Z,76.67
2018-08-28T06:03:00.837Z,76.67
2018-08-28T06:04:00.828Z,76.57
2018-08-28T06:05:00.844Z,76.67
2018-08-28T06:06:00.866Z,76.81
2018-08-28T06:07:00.880Z,75.76
2018-08-28T06:08:00.899Z,75.66
2018-08-28T06:09:00.995Z,76.33
2018-08-28T06:10:00.931Z,75.85
2018-08-28T06:11:00.950Z,75.57
2018-08-28T06:12:00.962Z,75.76
2018-08-28T06:13:00.983Z,75.85
2018-08-28T06:14:00.999Z,76.04
2018-08-28T06:15:01.017Z,76.71
2018-08-28T06:16:01.033Z,76.04
2018-08-28T06:17:01.051Z,77.09
2018-08-28T06:18:01.069Z,75.85
2018-08-28T06:19:01.085Z,75.85
2018-08-28T06:20:01.111Z,75.13
2018-08-28T06:21:01.120Z,75.32
2018-08-28T06:22:01.136Z,75.42
2018-08-28T06:23:01.235Z,76.94
2018-08-28T06:24:01.175Z,75.79
2018-08-28T06:25:01.187Z,75.89
2018-08-28T06:26:01.205Z,75.60
2018-08-28T06:27:01.221Z,74.65
2018-08-28T06:28:01.249Z,74.46
2018-08-28T06:29:01.258Z,74.08
2018-08-28T06:30:01.278Z,75.26
2018-08-28T06:31:01.292Z,75.83
2018-08-28T06:32:01.309Z,76.12
2018-08-28T06:33:01.326Z,75.07
2018-08-28T06:34:01.469Z,75.26
2018-08-28T06:35:01.364Z,74.88
2018-08-28T06:36:01.379Z,75.54
2018-08-28T06:37:01.401Z,75.16
2018-08-28T06:38:01.416Z,74.98
2018-08-28T06:39:01.433Z,74.78
2018-08-28T06:40:01.449Z,75.26
2018-08-28T06:41:01.466Z,75.07
2018-08-28T06:42:01.482Z,74.69
2018-08-28T06:43:01.507Z,74.30
2018-08-28T06:44:01.595Z,74.88
2018-08-28T06:45:01.542Z,72.39
2018-08-28T06:46:01.555Z,74.49
2018-08-28T06:47:01.571Z,72.87
2018-08-28T06:48:01.589Z,73.86
2018-08-28T06:49:01.608Z,73.39
2018-08-28T06:50:01.624Z,73.29
2018-08-28T06:51:01.639Z,72.81
2018-08-28T06:52:01.657Z,72.05
2018-08-28T06:53:01.677Z,72.05
2018-08-28T06:54:01.695Z,72.24
2018-08-28T06:55:01.709Z,72.24
2018-08-28T06:56:01.729Z,72.72
2018-08-28T06:57:01.747Z,73.29
2018-08-28T06:58:01.766Z,73.10
2018-08-28T06:59:01.787Z,72.62
2018-08-28T07:00:01.801Z,73.29
2018-08-28T07:01:01.816Z,73.39
2018-08-28T07:02:01.833Z,74.44
2018-08-28T07:03:01.851Z,73.86
2018-08-28T07:04:01.902Z,73.67
2018-08-28T07:05:01.893Z,73.39
2018-08-28T07:06:01.906Z,73.23
2018-08-28T07:07:01.922Z,73.43
2018-08-28T07:08:01.977Z,72.75
2018-08-28T07:09:01.960Z,72.75
2018-08-28T07:10:01.977Z,72.14
2018-08-28T07:11:01.991Z,72.37
2018-08-28T07:12:02.010Z,71.70
2018-08-28T07:13:02.027Z,72.56
2018-08-28T07:14:02.046Z,71.51
2018-08-28T07:15:02.062Z,71.99
2018-08-28T07:16:02.080Z,71.99
2018-08-28T07:17:02.103Z,71.51
2018-08-28T07:18:02.119Z,72.14
2018-08-28T07:19:02.137Z,72.75
2018-08-28T07:20:02.154Z,72.94
2018-08-28T07:21:02.168Z,72.18
2018-08-28T07:22:02.188Z,71.99
2018-08-28T07:23:02.206Z,71.61
2018-08-28T07:24:02.222Z,70.46
2018-08-28T07:25:02.239Z,70.36
2018-08-28T07:26:02.292Z,70.46
2018-08-28T07:27:02.276Z,71.22
2018-08-28T07:28:02.302Z,71.51
2018-08-28T07:29:02.311Z,71.07
2018-08-28T07:30:02.329Z,69.06
2018-08-28T07:31:02.345Z,65.42
2018-08-28T07:32:02.365Z,65.71
2018-08-28T07:33:02.382Z,67.34
2018-08-28T07:34:02.400Z,66.76
2018-08-28T07:35:02.419Z,67.53
2018-08-28T07:36:02.437Z,66.38
2018-08-28T07:37:02.507Z,67.82
2018-08-28T07:38:02.475Z,67.34
2018-08-28T07:39:02.491Z,66.67
2018-08-28T07:40:02.513Z,68.10
2018-08-28T07:41:02.526Z,68.01
2018-08-28T07:42:02.547Z,66.28
2018-08-28T07:43:02.567Z,65.04
2018-08-28T07:44:02.579Z,64.56
2018-08-28T07:45:02.600Z,65.55
2018-08-28T07:46:02.620Z,64.40
2018-08-28T07:47:02.635Z,63.54
2018-08-28T07:48:02.652Z,63.73
2018-08-28T07:49:02.672Z,63.16
2018-08-28T07:50:02.690Z,62.77
2018-08-28T07:51:02.708Z,62.30
2018-08-28T07:52:02.726Z,62.30
2018-08-28T07:53:02.743Z,62.52
2018-08-28T07:54:02.848Z,62.81
2018-08-28T07:55:02.792Z,61.76
2018-08-28T07:56:02.799Z,61.85
2018-08-28T07:57:02.818Z,62.33
2018-08-28T07:58:02.834Z,63.93
2018-08-28T07:59:02.853Z,64.31
2018-08-28T08:00:02.876Z,64.50
2018-08-28T08:01:02.892Z,65.08
2018-08-28T08:02:02.912Z,64.88
2018-08-28T08:03:02.927Z,63.76
2018-08-28T08:04:02.944Z,63.93
2018-08-28T08:05:02.964Z,63.83
2018-08-28T08:06:02.983Z,64.02
2018-08-28T08:07:03.000Z,65.65
2018-08-28T08:08:03.021Z,65.01
2018-08-28T08:09:03.038Z,65.49
2018-08-28T08:10:03.059Z,64.53
2018-08-28T08:11:03.076Z,63.32
2018-08-28T08:12:03.096Z,62.04
2018-08-28T08:13:03.109Z,62.65
2018-08-28T08:14:03.133Z,61.79
2018-08-28T08:15:03.147Z,61.50
2018-08-28T08:16:03.224Z,61.79
2018-08-28T08:17:03.193Z,62.96
2018-08-28T08:18:03.204Z,62.59
2018-08-28T08:19:03.224Z,61.05
2018-08-28T08:20:03.243Z,61.72
2018-08-28T08:21:03.263Z,59.42
2018-08-28T08:22:03.330Z,59.42
2018-08-28T08:23:03.299Z,59.90
2018-08-28T08:24:03.323Z,58.05
2018-08-28T08:25:03.336Z,58.44
2018-08-28T08:26:03.355Z,58.81
2018-08-28T08:27:03.374Z,59.48
2018-08-28T08:28:03.558Z,59.20
2018-08-28T08:29:03.413Z,59.68
2018-08-28T08:30:03.430Z,59.77
2018-08-28T08:31:03.449Z,60.73
2018-08-28T08:32:03.468Z,61.02
2018-08-28T08:33:03.494Z,59.87
2018-08-28T08:34:03.508Z,59.58
2018-08-28T08:35:03.527Z,62.74
2018-08-28T08:36:03.544Z,60.28
2018-08-28T08:37:03.563Z,58.27
2018-08-28T08:38:03.584Z,58.08
2018-08-28T08:39:03.602Z,58.56
2018-08-28T08:40:03.622Z,59.52
2018-08-28T08:41:03.644Z,57.31
2018-08-28T08:42:03.731Z,57.12
2018-08-28T08:43:03.677Z,56.54
2018-08-28T08:44:03.700Z,56.83
2018-08-28T08:45:03.740Z,57.31
2018-08-28T08:46:03.737Z,57.03
2018-08-28T08:47:03.760Z,58.46
2018-08-28T08:48:03.774Z,57.79
2018-08-28T08:49:03.799Z,56.74
2018-08-28T08:50:03.813Z,57.03
2018-08-28T08:51:03.834Z,57.92
2018-08-28T08:52:03.854Z,56.00
2018-08-28T08:53:03.871Z,56.00
2018-08-28T08:54:03.890Z,56.16
2018-08-28T08:55:04.138Z,57.06
2018-08-28T08:56:03.929Z,57.92
2018-08-28T08:57:03.950Z,55.42
2018-08-28T08:58:03.972Z,54.66
2018-08-28T08:59:03.989Z,55.52
2018-08-28T09:00:04.007Z,55.71
2018-08-28T09:01:04.031Z,54.27
2018-08-28T09:02:04.046Z,53.79
2018-08-28T09:03:04.066Z,55.35
2018-08-28T09:04:04.086Z,53.60
2018-08-28T09:05:04.106Z,54.37
2018-08-28T09:06:04.159Z,54.34
2018-08-28T09:07:04.148Z,55.49
2018-08-28T09:08:04.163Z,54.53
2018-08-28T09:09:04.184Z,54.46
2018-08-28T09:10:04.204Z,54.58
2018-08-28T09:11:04.223Z,53.44
2018-08-28T09:12:04.288Z,53.34
2018-08-28T09:13:04.261Z,54.30
2018-08-28T09:14:04.284Z,52.69
2018-08-28T09:15:04.306Z,51.73
2018-08-28T09:16:04.325Z,51.81
2018-08-28T09:17:04.341Z,51.61
2018-08-28T09:18:04.366Z,53.31
2018-08-28T09:19:04.380Z,53.44
2018-08-28T09:20:04.402Z,52.55
2018-08-28T09:21:04.421Z,54.01
2018-08-28T09:22:04.441Z,53.15
2018-08-28T09:23:04.459Z,53.15
2018-08-28T09:24:04.479Z,52.89
2018-08-28T09:25:04.499Z,51.45
2018-08-28T09:26:04.519Z,51.25
2018-08-28T09:27:04.542Z,51.93
2018-08-28T09:28:04.559Z,51.73
2018-08-28T09:29:04.578Z,51.06
2018-08-28T09:30:04.601Z,51.57
2018-08-28T09:31:04.654Z,50.80
2018-08-28T09:32:04.640Z,49.93
2018-08-28T09:33:04.660Z,49.93
2018-08-28T09:34:04.680Z,50.03
2018-08-28T09:35:04.701Z,49.57
2018-08-28T09:36:04.722Z,49.26
2018-08-28T09:37:04.742Z,50.23
2018-08-28T09:38:04.762Z,48.97
2018-08-28T09:39:04.782Z,48.69
2018-08-28T09:40:04.802Z,49.15
2018-08-28T09:41:04.824Z,50.03
2018-08-28T09:42:04.845Z,49.07
2018-08-28T09:43:04.864Z,49.87
2018-08-28T09:44:04.886Z,47.75
2018-08-28T09:45:04.909Z,46.59
2018-08-28T09:46:04.927Z,46.79
2018-08-28T09:47:04.946Z,46.81
2018-08-28T09:48:05.048Z,46.02
2018-08-28T09:49:04.989Z,46.31
2018-08-28T09:50:05.026Z,45.87
2018-08-28T09:51:05.060Z,45.97
2018-08-28T09:52:05.052Z,46.06
2018-08-28T09:53:05.073Z,44.72
2018-08-28T09:54:05.094Z,46.55
2018-08-28T09:55:05.117Z,46.28
2018-08-28T09:56:05.135Z,45.03
2018-08-28T09:57:05.158Z,45.80
2018-08-28T09:58:05.180Z,45.29
2018-08-28T09:59:05.199Z,45.97
2018-08-28T10:00:05.223Z,45.01
2018-08-28T10:01:05.242Z,45.10
2018-08-28T10:02:05.268Z,45.01
2018-08-28T10:03:05.286Z,45.01
2018-08-28T10:04:05.307Z,46.84
2018-08-28T10:05:05.329Z,47.31
2018-08-28T10:06:05.353Z,46.16
2018-08-28T10:07:05.375Z,46.23
2018-08-28T10:08:05.395Z,47.61
2018-08-28T10:09:05.417Z,46.53
2018-08-28T10:10:05.439Z,47.39
2018-08-28T10:11:05.561Z,46.84
2018-08-28T10:12:05.486Z,46.95
2018-08-28T10:13:05.505Z,45.90
2018-08-28T10:14:05.533Z,44.07
2018-08-28T10:15:05.550Z,45.99
2018-08-28T10:16:05.572Z,46.77
2018-08-28T10:17:05.599Z,45.03
2018-08-28T10:18:05.615Z,44.65
2018-08-28T10:19:05.636Z,45.63
2018-08-28T10:20:05.661Z,45.32
2018-08-28T10:21:05.784Z,45.42
2018-08-28T10:22:05.703Z,45.03
2018-08-28T10:23:05.732Z,44.65
2018-08-28T10:24:05.748Z,45.83
2018-08-28T10:25:05.774Z,45.34
2018-08-28T10:26:05.792Z,44.93
2018-08-28T10:27:05.815Z,45.32
2018-08-28T10:28:05.835Z,45.73
2018-08-28T10:29:05.866Z,45.59
2018-08-28T10:30:05.882Z,46.95
2018-08-28T10:31:05.905Z,46.19
2018-08-28T10:32:05.929Z,45.83
2018-08-28T10:33:05.951Z,45.22
2018-08-28T10:34:05.973Z,45.22
2018-08-28T10:35:05.996Z,43.80
2018-08-28T10:36:06.019Z,42.46
2018-08-28T10:37:06.048Z,44.13
2018-08-28T10:38:06.081Z,42.28
2018-08-28T10:39:06.086Z,41.14
2018-08-28T10:40:06.112Z,40.20
2018-08-28T10:41:06.131Z,38.95
2018-08-28T10:42:06.156Z,39.62
2018-08-28T10:43:06.177Z,38.78
2018-08-28T10:44:06.201Z,37.77
2018-08-28T10:45:06.225Z,40.11
2018-08-28T10:46:06.363Z,39.64
2018-08-28T10:47:06.268Z,36.94
2018-08-28T10:48:06.297Z,38.89
2018-08-28T10:49:06.322Z,39.36
2018-08-28T10:50:06.341Z,38.76
2018-08-28T10:51:06.364Z,40.11
2018-08-28T10:52:06.385Z,40.11
2018-08-28T10:53:06.410Z,40.28
2018-08-28T10:54:06.432Z,40.88
2018-08-28T10:55:06.457Z,41.07
2018-08-28T10:56:06.481Z,41.55
2018-08-28T10:57:06.507Z,41.17
2018-08-28T10:58:06.527Z,40.78
2018-08-28T10:59:06.551Z,41.27
2018-08-28T11:00:06.573Z,39.91
2018-08-28T11:01:06.598Z,39.84
2018-08-28T11:02:06.628Z,40.12
2018-08-28T11:03:06.645Z,39.99
2018-08-28T11:04:06.668Z,39.51
2018-08-28T11:05:06.696Z,40.01
2018-08-28T11:06:06.718Z,40.80
2018-08-28T11:07:06.743Z,39.94
2018-08-28T11:08:06.765Z,38.10
2018-08-28T11:09:06.792Z,38.56
2018-08-28T11:10:06.817Z,40.30
2018-08-28T11:11:06.840Z,39.34
2018-08-28T11:12:06.863Z,39.26
2018-08-28T11:13:06.887Z,40.05
2018-08-28T11:14:06.911Z,38.95
2018-08-28T11:15:06.936Z,39.53
2018-08-28T11:16:07.035Z,40.42
2018-08-28T11:17:06.983Z,40.32
2018-08-28T11:18:07.010Z,40.57
2018-08-28T11:19:07.032Z,41.32
2018-08-28T11:20:07.057Z,41.51
2018-08-28T11:21:07.080Z,42.86
2018-08-28T11:22:07.110Z,41.84
2018-08-28T11:23:07.129Z,40.28
2018-08-28T11:24:07.152Z,42.42
2018-08-28T11:25:07.178Z,42.71
2018-08-28T11:26:07.200Z,42.44
2018-08-28T11:27:07.224Z,42.27
2018-08-28T11:28:07.248Z,40.70
2018-08-28T11:29:07.272Z,41.11
2018-08-28T11:30:07.297Z,41.30
2018-08-28T11:31:07.324Z,41.20
2018-08-28T11:32:07.344Z,40.88
2018-08-28T11:33:07.371Z,42.32
2018-08-28T11:34:07.398Z,41.94
2018-08-28T11:35:07.418Z,41.38
2018-08-28T11:36:07.442Z,41.48
2018-08-28T11:37:07.467Z,41.46
2018-08-28T11:38:07.493Z,42.63
2018-08-28T11:39:07.514Z,41.09
2018-08-28T11:40:07.538Z,41.13
2018-08-28T11:41:07.565Z,39.57
2018-08-28T11:42:07.595Z,38.91
2018-08-28T11:43:07.612Z,39.61
2018-08-28T11:44:07.637Z,39.01
2018-08-28T11:45:07.662Z,38.99
2018-08-28T11:46:07.689Z,39.26
2018-08-28T11:47:07.718Z,40.15
2018-08-28T11:48:07.736Z,40.17
2018-08-28T11:49:07.760Z,38.25
2018-08-28T11:50:07.784Z,37.96
2018-08-28T11:51:07.811Z,37.60
2018-08-28T11:52:07.833Z,38.18
2018-08-28T11:53:07.941Z,36.72
2018-08-28T11:54:07.884Z,37.48
2018-08-28T11:55:07.907Z,36.40
2018-08-28T11:56:07.932Z,37.58
2018-08-28T11:57:07.961Z,37.29
2018-08-28T11:58:07.986Z,37.65
2018-08-28T11:59:08.009Z,37.27
2018-08-28T12:00:08.034Z,37.56
2018-08-28T12:01:08.061Z,37.67
2018-08-28T12:02:08.230Z,36.82
2018-08-28T12:03:08.111Z,36.44
2018-08-28T12:04:08.135Z,36.79
2018-08-28T12:05:08.223Z,37.95
2018-08-28T12:06:08.185Z,37.79
2018-08-28T12:07:08.219Z,37.30
2018-08-28T12:08:08.235Z,36.15
2018-08-28T12:09:08.261Z,37.70
2018-08-28T12:10:08.292Z,35.95
2018-08-28T12:11:08.314Z,35.08
2018-08-28T12:12:08.337Z,36.13
2018-08-28T12:13:08.455Z,36.34
2018-08-28T12:14:08.388Z,36.13
2018-08-28T12:15:08.416Z,36.30
2018-08-28T12:16:08.440Z,37.93
2018-08-28T12:17:08.466Z,38.71
2018-08-28T12:18:08.493Z,38.41
2018-08-28T12:19:08.517Z,38.99
2018-08-28T12:20:08.541Z,38.71
2018-08-28T12:21:08.589Z,37.08
2018-08-28T12:22:08.591Z,37.48
2018-08-28T12:23:08.616Z,36.22
2018-08-28T12:24:08.646Z,35.76
2018-08-28T12:25:08.669Z,35.47
2018-08-28T12:26:08.695Z,35.84
2018-08-28T12:27:08.720Z,35.94
2018-08-28T12:28:08.744Z,35.26
2018-08-28T12:29:08.771Z,32.67
2018-08-28T12:30:08.799Z,32.26
2018-08-28T12:31:08.820Z,32.76
2018-08-28T12:32:08.846Z,32.44
2018-08-28T12:33:08.878Z,33.39
2018-08-28T12:34:08.898Z,33.80
2018-08-28T12:35:08.923Z,32.94
2018-08-28T12:36:08.949Z,31.13
2018-08-28T12:37:09.029Z,28.89
2018-08-28T12:38:09.000Z,30.44
2018-08-28T12:39:09.026Z,30.15
2018-08-28T12:40:09.052Z,29.97
2018-08-28T12:41:09.077Z,28.11
2018-08-28T12:42:09.104Z,30.00
2018-08-28T12:43:09.128Z,30.99
2018-08-28T12:44:09.239Z,30.59
2018-08-28T12:45:09.180Z,29.93
2018-08-28T12:46:09.210Z,27.92
2018-08-28T12:47:09.229Z,28.02
2018-08-28T12:48:09.254Z,28.03
2018-08-28T12:49:09.281Z,26.98
2018-08-28T12:50:09.309Z,27.72
2018-08-28T12:51:09.355Z,29.86
2018-08-28T12:52:09.359Z,28.02
2018-08-28T12:53:09.385Z,27.82